Time;durP1;ratioP1;P1;durP2;ratioP2;P2;SDS_P1;SDS_P2;PMS_P1;PMS_P2;Temp;Humidity;BMP_temperature;BMP_pressure;BME280_temperature;BME280_humidity;BME280_pressure;Samples;Min_cycle;Max_cycle;Signal;HPM_P1;HPM_P2
2023/05/02 00:00:15;;;;;;;57.13;2.60;;;;;;;;;;5070972;28;20471;-68
2023/05/02 00:02:42;;;;;;;57.60;2.50;;;;;;;;;;5071393;28;20966;-68
2023/05/02 00:05:09;;;;;;;57.20;2.20;;;;;;;;;;5071450;28;20443;-69
2023/05/02 00:07:37;;;;;;;57.47;2.47;;;;;;;;;;5071343;28;20457;-68
2023/05/02 00:10:04;;;;;;;57.60;2.60;;;;;;;;;;5070726;28;20471;-68
2023/05/02 00:12:33;;;;;;;57.47;2.50;;;;;;;;;;5071094;28;20508;-68
2023/05/02 00:15:00;;;;;;;57.57;2.50;;;;;;;;;;5071429;28;20447;-68
2023/05/02 00:17:27;;;;;;;58.20;2.40;;;;;;;;;;5071358;28;20451;-68
2023/05/02 00:19:54;;;;;;;57.60;2.83;;;;;;;;;;5073920;28;20843;-68
2023/05/02 00:22:21;;;;;;;57.57;2.80;;;;;;;;;;5074959;28;20443;-68
2023/05/02 00:24:49;;;;;;;57.70;2.50;;;;;;;;;;5074661;28;20466;-68
2023/05/02 00:27:16;;;;;;;57.17;2.50;;;;;;;;;;5075084;28;20449;-68
2023/05/02 00:29:46;;;;;;;57.33;2.30;;;;;;;;;;5074620;28;20866;-68
2023/05/02 00:32:13;;;;;;;57.47;2.60;;;;;;;;;;5074816;28;20455;-68
2023/05/02 00:34:41;;;;;;;57.90;3.10;;;;;;;;;;5074573;28;20526;-68
2023/05/02 00:37:08;;;;;;;58.30;4.13;;;;;;;;;;5074726;28;20447;-67
2023/05/02 00:39:35;;;;;;;57.17;2.50;;;;;;;;;;5074139;28;21009;-67
2023/05/02 00:42:02;;;;;;;57.07;2.60;;;;;;;;;;5074780;28;20463;-68
2023/05/02 00:44:29;;;;;;;57.57;2.40;;;;;;;;;;5074704;28;20439;-68
2023/05/02 00:46:59;;;;;;;57.77;2.87;;;;;;;;;;5074463;28;20955;-68
2023/05/02 00:49:26;;;;;;;57.00;2.60;;;;;;;;;;5074131;28;20466;-67
2023/05/02 00:51:54;;;;;;;57.57;2.60;;;;;;;;;;5074320;28;20898;-68
2023/05/02 00:54:21;;;;;;;57.50;2.73;;;;;;;;;;5074640;28;20520;-68
2023/05/02 00:56:48;;;;;;;57.67;3.97;;;;;;;;;;5074303;28;20444;-68
2023/05/02 00:59:15;;;;;;;57.03;2.60;;;;;;;;;;5074022;28;20467;-68
2023/05/02 01:01:50;;;;;;;57.70;3.00;;;;;;;;;;5074301;28;20978;-68
2023/05/02 01:04:23;;;;;;;57.17;2.60;;;;;;;;;;5074192;28;20530;-68
2023/05/02 01:06:59;;;;;;;56.60;2.60;;;;;;;;;;5074330;28;20457;-68
2023/05/02 01:09:30;;;;;;;57.60;2.50;;;;;;;;;;5073913;28;20500;-68
2023/05/02 01:12:02;;;;;;;57.30;3.03;;;;;;;;;;5072342;28;20452;-68
2023/05/02 01:14:30;;;;;;;57.70;2.70;;;;;;;;;;5073935;28;20561;-68
2023/05/02 01:16:58;;;;;;;57.47;3.30;;;;;;;;;;5074077;28;20448;-68
2023/05/02 01:19:30;;;;;;;57.47;2.47;;;;;;;;;;5073619;28;20502;-68
2023/05/02 01:21:57;;;;;;;57.97;3.37;;;;;;;;;;5073907;28;20452;-68
2023/05/02 01:24:26;;;;;;;57.40;2.47;;;;;;;;;;5073666;28;20465;-68
2023/05/02 01:26:59;;;;;;;57.27;2.53;;;;;;;;;;5073946;28;20873;-68
2023/05/02 01:29:27;;;;;;;56.73;2.60;;;;;;;;;;5073217;28;20842;-68
2023/05/02 01:31:54;;;;;;;57.53;3.03;;;;;;;;;;5073810;28;20444;-68
2023/05/02 01:34:22;;;;;;;57.30;2.40;;;;;;;;;;5073506;28;20479;-68
2023/05/02 01:36:51;;;;;;;57.40;2.67;;;;;;;;;;5073510;28;20447;-68
2023/05/02 01:39:19;;;;;;;57.77;3.37;;;;;;;;;;5073361;28;20479;-68
2023/05/02 01:41:48;;;;;;;56.80;2.50;;;;;;;;;;5073695;28;20447;-68
2023/05/02 01:44:16;;;;;;;57.40;2.60;;;;;;;;;;5073437;28;20974;-68
2023/05/02 01:46:45;;;;;;;57.37;2.80;;;;;;;;;;5073479;28;20447;-68
2023/05/02 01:49:12;;;;;;;57.47;2.93;;;;;;;;;;5072926;28;20439;-68
2023/05/02 01:51:44;;;;;;;57.43;2.40;;;;;;;;;;5073151;28;20450;-68
2023/05/02 01:54:13;;;;;;;57.37;2.40;;;;;;;;;;5073210;28;21132;-68
2023/05/02 01:56:40;;;;;;;57.27;2.63;;;;;;;;;;5073329;28;20444;-68
2023/05/02 01:59:09;;;;;;;57.30;2.60;;;;;;;;;;5072872;28;20447;-68
2023/05/02 02:01:37;;;;;;;57.47;2.70;;;;;;;;;;5073017;28;20912;-68
2023/05/02 02:04:06;;;;;;;57.37;2.60;;;;;;;;;;5072921;28;20450;-68
2023/05/02 02:06:33;;;;;;;57.70;2.50;;;;;;;;;;5073208;28;20825;-68
2023/05/02 02:09:00;;;;;;;58.10;3.33;;;;;;;;;;5072688;28;20453;-68
2023/05/02 02:11:29;;;;;;;57.77;2.60;;;;;;;;;;5073006;28;20827;-68
2023/05/02 02:14:01;;;;;;;58.63;3.73;;;;;;;;;;5072794;28;20475;-68
2023/05/02 02:16:30;;;;;;;57.17;2.60;;;;;;;;;;5072794;28;20473;-68
2023/05/02 02:18:58;;;;;;;57.37;2.60;;;;;;;;;;5072274;28;20451;-68
2023/05/02 02:21:28;;;;;;;57.27;2.50;;;;;;;;;;5072864;28;20820;-68
2023/05/02 02:23:56;;;;;;;57.07;2.60;;;;;;;;;;5072682;28;20460;-68
2023/05/02 02:26:24;;;;;;;57.30;2.67;;;;;;;;;;5072670;28;20474;-68
2023/05/02 02:28:51;;;;;;;57.23;2.50;;;;;;;;;;5072272;28;20525;-68
2023/05/02 02:31:18;;;;;;;57.30;2.57;;;;;;;;;;5072315;28;20471;-68
2023/05/02 02:33:45;;;;;;;57.37;2.50;;;;;;;;;;5072733;28;20487;-68
2023/05/02 02:36:13;;;;;;;57.07;2.67;;;;;;;;;;5072510;28;20443;-68
2023/05/02 02:38:45;;;;;;;57.07;2.50;;;;;;;;;;5072163;28;20832;-68
2023/05/02 02:41:14;;;;;;;56.70;2.50;;;;;;;;;;5072135;28;20498;-68
2023/05/02 02:43:44;;;;;;;57.37;2.90;;;;;;;;;;5072209;28;20486;-68
2023/05/02 02:46:16;;;;;;;57.20;2.67;;;;;;;;;;5072509;28;20828;-68
2023/05/02 02:48:47;;;;;;;57.57;2.40;;;;;;;;;;5072055;28;20451;-68
2023/05/02 02:51:15;;;;;;;57.57;2.50;;;;;;;;;;5072188;28;20478;-68
2023/05/02 02:53:52;;;;;;;57.60;3.73;;;;;;;;;;5072040;28;20482;-68
2023/05/02 02:56:22;;;;;;;56.97;2.37;;;;;;;;;;5072030;28;20462;-68
2023/05/02 02:58:55;;;;;;;56.77;2.50;;;;;;;;;;5071935;28;20563;-68
2023/05/02 03:01:25;;;;;;;56.83;2.50;;;;;;;;;;5072243;28;20450;-68
2023/05/02 03:03:52;;;;;;;56.97;2.40;;;;;;;;;;5072017;28;20447;-67
2023/05/02 03:06:19;;;;;;;57.57;3.80;;;;;;;;;;5071939;28;20453;-68
2023/05/02 03:08:48;;;;;;;57.30;2.57;;;;;;;;;;5071502;28;20443;-68
2023/05/02 03:11:15;;;;;;;57.33;2.47;;;;;;;;;;5072028;28;20477;-68
2023/05/02 03:13:42;;;;;;;57.40;3.33;;;;;;;;;;5071714;28;20484;-68
2023/05/02 03:16:28;;;;;;;57.17;2.83;;;;;;;;;;5071969;28;20447;-68
2023/05/02 03:18:55;;;;;;;57.57;2.63;;;;;;;;;;5071541;28;20458;-68
2023/05/02 03:21:22;;;;;;;57.40;2.60;;;;;;;;;;5071902;28;21152;-68
2023/05/02 03:23:50;;;;;;;57.27;2.57;;;;;;;;;;5071890;28;20490;-68
2023/05/02 03:26:18;;;;;;;57.00;2.27;;;;;;;;;;5071913;28;20564;-68
2023/05/02 03:28:46;;;;;;;57.47;2.50;;;;;;;;;;5071460;28;20458;-68
2023/05/02 03:31:13;;;;;;;58.43;3.37;;;;;;;;;;5071610;28;20474;-68
2023/05/02 03:33:40;;;;;;;57.23;2.27;;;;;;;;;;5071505;28;20487;-68
2023/05/02 03:36:07;;;;;;;56.97;2.57;;;;;;;;;;5071839;28;20447;-68
2023/05/02 03:38:34;;;;;;;57.50;2.37;;;;;;;;;;5071276;28;20486;-68
2023/05/02 03:41:03;;;;;;;57.17;2.40;;;;;;;;;;5071738;28;20467;-68
2023/05/02 03:43:30;;;;;;;57.47;2.50;;;;;;;;;;5071598;28;20481;-68
2023/05/02 03:45:58;;;;;;;57.60;2.90;;;;;;;;;;5071558;28;20444;-68
2023/05/02 03:48:26;;;;;;;59.80;3.30;;;;;;;;;;5071303;28;20822;-68
2023/05/02 03:50:53;;;;;;;58.50;3.13;;;;;;;;;;5071450;28;20480;-68
2023/05/02 03:53:20;;;;;;;58.73;2.93;;;;;;;;;;5073789;28;20965;-68
2023/05/02 03:55:47;;;;;;;56.57;2.50;;;;;;;;;;5075495;28;20489;-68
2023/05/02 03:58:16;;;;;;;56.93;2.70;;;;;;;;;;5075447;28;20451;-68
2023/05/02 04:00:43;;;;;;;57.10;2.50;;;;;;;;;;5075050;28;20473;-68
2023/05/02 04:03:11;;;;;;;57.27;2.20;;;;;;;;;;5075803;28;20447;-68
2023/05/02 04:05:38;;;;;;;56.50;2.23;;;;;;;;;;5075322;28;20452;-68
2023/05/02 04:08:05;;;;;;;56.97;2.13;;;;;;;;;;5075385;28;20451;-68
2023/05/02 04:10:32;;;;;;;57.03;2.50;;;;;;;;;;5074904;28;20470;-68
2023/05/02 04:13:01;;;;;;;57.17;2.60;;;;;;;;;;5075283;28;20453;-68
2023/05/02 04:15:30;;;;;;;57.20;2.70;;;;;;;;;;5074945;28;20479;-68
2023/05/02 04:17:58;;;;;;;56.93;2.67;;;;;;;;;;5075136;28;20450;-68
2023/05/02 04:20:25;;;;;;;57.07;2.80;;;;;;;;;;5074830;28;20870;-68
2023/05/02 04:22:52;;;;;;;57.30;2.57;;;;;;;;;;5075113;28;20470;-68
2023/05/02 04:25:19;;;;;;;57.37;2.60;;;;;;;;;;5074836;28;20947;-68
2023/05/02 04:27:47;;;;;;;58.77;3.03;;;;;;;;;;5074872;28;20443;-68
2023/05/02 04:30:14;;;;;;;57.33;2.70;;;;;;;;;;5074502;28;20748;-68
2023/05/02 04:32:42;;;;;;;57.17;2.50;;;;;;;;;;5074854;28;20455;-68
2023/05/02 04:35:10;;;;;;;57.40;2.33;;;;;;;;;;5074637;28;20487;-68
2023/05/02 04:37:37;;;;;;;57.17;2.63;;;;;;;;;;5074686;28;20458;-68
2023/05/02 04:40:05;;;;;;;57.37;2.80;;;;;;;;;;5074371;28;20463;-68
2023/05/02 04:42:32;;;;;;;57.40;2.90;;;;;;;;;;5074514;28;20895;-68
2023/05/02 04:44:59;;;;;;;57.30;2.50;;;;;;;;;;5074740;28;20453;-68
2023/05/02 04:47:26;;;;;;;56.77;2.40;;;;;;;;;;5074505;28;20959;-68
2023/05/02 04:49:54;;;;;;;60.23;5.60;;;;;;;;;;5074221;28;20472;-68
2023/05/02 04:52:21;;;;;;;57.40;2.40;;;;;;;;;;5074374;28;20452;-68
2023/05/02 04:54:48;;;;;;;57.73;4.07;;;;;;;;;;5074821;28;20483;-68
2023/05/02 04:57:16;;;;;;;57.00;2.70;;;;;;;;;;5074313;28;20944;-68
2023/05/02 04:59:43;;;;;;;56.97;2.50;;;;;;;;;;5074095;28;20471;-68
2023/05/02 05:02:11;;;;;;;57.27;2.30;;;;;;;;;;5074334;28;20454;-68
2023/05/02 05:04:38;;;;;;;57.37;2.97;;;;;;;;;;5073507;28;20960;-68
2023/05/02 05:07:06;;;;;;;57.17;2.40;;;;;;;;;;5074139;28;20443;-68
2023/05/02 05:09:34;;;;;;;57.60;3.10;;;;;;;;;;5073718;28;20509;-68
2023/05/02 05:12:01;;;;;;;57.40;2.50;;;;;;;;;;5074046;28;20961;-68
2023/05/02 05:14:30;;;;;;;57.20;2.40;;;;;;;;;;5074191;28;20486;-68
2023/05/02 05:16:58;;;;;;;57.37;2.40;;;;;;;;;;5073935;28;20485;-68
2023/05/02 05:19:25;;;;;;;57.20;2.47;;;;;;;;;;5073720;28;20470;-68
2023/05/02 05:21:52;;;;;;;57.27;3.03;;;;;;;;;;5073877;28;20449;-68
2023/05/02 05:24:21;;;;;;;57.47;2.80;;;;;;;;;;5073914;28;20462;-68
2023/05/02 05:26:48;;;;;;;56.57;3.23;;;;;;;;;;5073945;28;20443;-68
2023/05/02 05:29:15;;;;;;;56.77;2.70;;;;;;;;;;5073530;28;20447;-68
2023/05/02 05:31:42;;;;;;;56.47;2.60;;;;;;;;;;5073628;28;20936;-68
2023/05/02 05:34:09;;;;;;;56.97;2.63;;;;;;;;;;5073671;28;20454;-68
2023/05/02 05:36:37;;;;;;;57.10;2.80;;;;;;;;;;5073530;28;20457;-68
2023/05/02 05:39:04;;;;;;;56.80;2.13;;;;;;;;;;5073125;28;20455;-68
2023/05/02 05:41:34;;;;;;;57.00;2.23;;;;;;;;;;5073894;28;20568;-68
2023/05/02 05:44:01;;;;;;;57.03;2.40;;;;;;;;;;5073562;28;20449;-68
2023/05/02 05:46:28;;;;;;;57.30;2.47;;;;;;;;;;5073455;28;20444;-68
2023/05/02 05:48:55;;;;;;;59.70;4.40;;;;;;;;;;5072691;28;21027;-68
2023/05/02 05:51:22;;;;;;;57.10;2.37;;;;;;;;;;5073489;28;20466;-68
2023/05/02 05:53:49;;;;;;;57.17;2.67;;;;;;;;;;5073418;28;20444;-68
2023/05/02 05:56:17;;;;;;;57.13;2.17;;;;;;;;;;5073277;28;20489;-68
2023/05/02 05:58:45;;;;;;;57.40;2.30;;;;;;;;;;5072876;28;20459;-68
2023/05/02 06:01:12;;;;;;;57.03;2.20;;;;;;;;;;5073052;28;20558;-68
2023/05/02 06:03:39;;;;;;;58.87;3.23;;;;;;;;;;5072604;28;20455;-68
2023/05/02 06:06:06;;;;;;;57.00;2.37;;;;;;;;;;5072919;28;20951;-68
2023/05/02 06:08:34;;;;;;;56.57;2.40;;;;;;;;;;5072674;28;20447;-68
2023/05/02 06:11:01;;;;;;;57.10;2.33;;;;;;;;;;5072748;28;20893;-68
2023/05/02 06:13:28;;;;;;;57.20;2.70;;;;;;;;;;5073282;28;20458;-68
2023/05/02 06:16:00;;;;;;;57.23;2.40;;;;;;;;;;5071737;28;20488;-68
2023/05/02 06:18:27;;;;;;;56.93;2.30;;;;;;;;;;5072875;28;20466;-67
2023/05/02 06:20:55;;;;;;;57.30;2.50;;;;;;;;;;5072461;28;20558;-68
2023/05/02 06:23:22;;;;;;;57.17;2.50;;;;;;;;;;5072612;28;20448;-68
2023/05/02 06:25:49;;;;;;;57.13;2.30;;;;;;;;;;5072861;28;20440;-68
2023/05/02 06:28:16;;;;;;;57.10;2.43;;;;;;;;;;5072583;28;20447;-68
2023/05/02 06:30:43;;;;;;;57.10;2.20;;;;;;;;;;5072111;28;21013;-68
2023/05/02 06:33:12;;;;;;;57.37;2.90;;;;;;;;;;5072668;28;20470;-68
2023/05/02 06:35:39;;;;;;;57.07;2.30;;;;;;;;;;5071124;28;20545;-68
2023/05/02 06:38:06;;;;;;;57.10;2.40;;;;;;;;;;5072512;28;20443;-68
2023/05/02 06:40:36;;;;;;;57.17;2.40;;;;;;;;;;5072069;28;20474;-68
2023/05/02 06:43:04;;;;;;;57.60;3.20;;;;;;;;;;5072274;28;20959;-68
2023/05/02 06:45:31;;;;;;;57.50;3.00;;;;;;;;;;5072118;28;20533;-68
2023/05/02 06:47:58;;;;;;;57.17;2.30;;;;;;;;;;5072303;28;20458;-68
2023/05/02 06:50:27;;;;;;;57.27;2.40;;;;;;;;;;5071857;28;20472;-68
2023/05/02 06:52:54;;;;;;;57.47;3.00;;;;;;;;;;5072153;28;20509;-69
2023/05/02 06:55:21;;;;;;;56.70;2.20;;;;;;;;;;5072049;28;20479;-68
2023/05/02 06:57:49;;;;;;;57.87;3.30;;;;;;;;;;5072011;28;20453;-69
2023/05/02 07:00:17;;;;;;;56.97;2.50;;;;;;;;;;5071729;28;20489;-68
2023/05/02 07:02:45;;;;;;;56.97;2.40;;;;;;;;;;5072174;28;20487;-68
2023/05/02 07:05:12;;;;;;;57.37;3.50;;;;;;;;;;5072140;28;20444;-69
2023/05/02 07:07:41;;;;;;;57.30;2.40;;;;;;;;;;5072108;28;20524;-69
2023/05/02 07:10:08;;;;;;;57.30;2.50;;;;;;;;;;5071482;28;20839;-68
2023/05/02 07:12:35;;;;;;;57.20;2.50;;;;;;;;;;5071775;28;20451;-69
2023/05/02 07:15:02;;;;;;;57.47;2.57;;;;;;;;;;5071818;28;20484;-68
2023/05/02 07:17:30;;;;;;;57.30;2.40;;;;;;;;;;5071715;28;20962;-68
2023/05/02 07:19:57;;;;;;;57.07;2.07;;;;;;;;;;5071472;28;20560;-69
2023/05/02 07:22:24;;;;;;;57.40;2.53;;;;;;;;;;5071708;28;20443;-69
2023/05/02 07:24:59;;;;;;;57.80;3.30;;;;;;;;;;5071485;28;20970;-69
2023/05/02 07:27:26;;;;;;;57.50;3.33;;;;;;;;;;5071652;28;20442;-68
2023/05/02 07:29:53;;;;;;;57.07;2.13;;;;;;;;;;5071106;28;20463;-69
2023/05/02 07:32:21;;;;;;;59.17;2.90;;;;;;;;;;5071725;28;20496;-68
2023/05/02 07:34:48;;;;;;;57.50;2.70;;;;;;;;;;5071596;28;20444;-69
2023/05/02 07:37:15;;;;;;;57.37;3.00;;;;;;;;;;5071579;28;20482;-68
2023/05/02 07:39:42;;;;;;;58.00;2.70;;;;;;;;;;5071050;28;20469;-69
2023/05/02 07:42:11;;;;;;;56.90;2.30;;;;;;;;;;5071637;28;20808;-68
2023/05/02 07:44:38;;;;;;;57.50;3.40;;;;;;;;;;5071609;28;20444;-68
2023/05/02 07:47:05;;;;;;;57.60;3.00;;;;;;;;;;5071615;28;20459;-69
2023/05/02 07:49:32;;;;;;;58.83;2.67;;;;;;;;;;5071063;28;20486;-69
2023/05/02 07:51:59;;;;;;;58.20;3.33;;;;;;;;;;5071349;28;20456;-69
2023/05/02 07:54:26;;;;;;;56.83;2.10;;;;;;;;;;5071314;28;20459;-69
2023/05/02 07:56:56;;;;;;;58.30;2.27;;;;;;;;;;5071447;28;20494;-68
2023/05/02 07:59:24;;;;;;;59.30;3.33;;;;;;;;;;5071372;28;20491;-69
2023/05/02 08:01:51;;;;;;;63.73;2.87;;;;;;;;;;5071413;28;20478;-68
2023/05/02 08:04:19;;;;;;;58.10;2.97;;;;;;;;;;5071246;28;20453;-68
2023/05/02 08:06:46;;;;;;;59.70;3.37;;;;;;;;;;5071464;28;20478;-69
2023/05/02 08:09:13;;;;;;;58.47;3.13;;;;;;;;;;5071019;28;20450;-68
2023/05/02 08:11:41;;;;;;;56.97;1.93;;;;;;;;;;5071165;28;20457;-69
2023/05/02 08:14:08;;;;;;;57.10;2.63;;;;;;;;;;5071242;28;20451;-68
2023/05/02 08:16:36;;;;;;;57.27;2.50;;;;;;;;;;5071222;28;20491;-69
2023/05/02 08:19:03;;;;;;;57.60;2.70;;;;;;;;;;5070726;28;20450;-68
2023/05/02 08:21:31;;;;;;;59.50;5.97;;;;;;;;;;5071227;28;20925;-68
2023/05/02 08:23:58;;;;;;;57.70;2.70;;;;;;;;;;5070993;28;21009;-69
2023/05/02 08:26:25;;;;;;;57.20;2.50;;;;;;;;;;5071207;28;20447;-69
2023/05/02 08:28:53;;;;;;;57.20;2.87;;;;;;;;;;5070659;28;20447;-68
2023/05/02 08:31:20;;;;;;;56.90;2.30;;;;;;;;;;5070946;28;20501;-68
2023/05/02 08:33:49;;;;;;;57.27;2.67;;;;;;;;;;5070910;28;20963;-69
2023/05/02 08:36:16;;;;;;;57.30;2.30;;;;;;;;;;5071158;28;20489;-69
2023/05/02 08:38:44;;;;;;;56.97;2.10;;;;;;;;;;5068179;28;20467;-69
2023/05/02 08:41:11;;;;;;;56.87;2.30;;;;;;;;;;5070872;28;20473;-69
2023/05/02 08:43:39;;;;;;;58.13;2.87;;;;;;;;;;5074347;28;20943;-68
2023/05/02 08:46:07;;;;;;;58.20;3.40;;;;;;;;;;5074473;28;20712;-69
2023/05/02 08:48:36;;;;;;;59.30;2.73;;;;;;;;;;5057947;28;20937;-68
2023/05/02 08:51:05;;;;;;;56.97;2.70;;;;;;;;;;5054541;28;20468;-67
2023/05/02 08:53:33;;;;;;;57.70;3.00;;;;;;;;;;5054538;28;20455;-68
2023/05/02 08:56:00;;;;;;;58.27;3.00;;;;;;;;;;5054358;28;20487;-68
2023/05/02 08:58:27;;;;;;;56.87;2.37;;;;;;;;;;5054188;28;20440;-68
2023/05/02 09:00:56;;;;;;;58.70;3.67;;;;;;;;;;5054086;28;20563;-68
2023/05/02 09:03:25;;;;;;;57.17;2.53;;;;;;;;;;5054352;28;20448;-68
2023/05/02 09:05:54;;;;;;;57.50;2.90;;;;;;;;;;5054347;28;20457;-69
2023/05/02 09:08:25;;;;;;;59.30;2.67;;;;;;;;;;5054100;28;20463;-68
2023/05/02 09:10:53;;;;;;;56.90;2.40;;;;;;;;;;5053835;28;20472;-68
2023/05/02 09:13:29;;;;;;;58.27;3.10;;;;;;;;;;5053891;28;20450;-68
2023/05/02 09:15:59;;;;;;;62.07;3.87;;;;;;;;;;5053855;28;20483;-69
2023/05/02 09:18:29;;;;;;;57.40;3.37;;;;;;;;;;5054092;28;20444;-68
2023/05/02 09:20:56;;;;;;;61.67;4.30;;;;;;;;;;5053632;28;20476;-68
2023/05/02 09:23:33;;;;;;;58.57;3.27;;;;;;;;;;5053772;28;20475;-68
2023/05/02 09:26:01;;;;;;;58.40;2.63;;;;;;;;;;5053710;28;20452;-68
2023/05/02 09:28:41;;;;;;;62.50;5.80;;;;;;;;;;5053840;28;20475;-69
2023/05/02 09:31:09;;;;;;;57.17;3.10;;;;;;;;;;5053591;28;20625;-67
2023/05/02 09:33:36;;;;;;;62.87;3.70;;;;;;;;;;5053735;28;20841;-68
2023/05/02 09:36:03;;;;;;;58.37;4.10;;;;;;;;;;5053450;28;20486;-68
2023/05/02 09:38:30;;;;;;;59.07;4.27;;;;;;;;;;5053294;28;20506;-68
2023/05/02 09:41:02;;;;;;;58.93;5.53;;;;;;;;;;5053545;28;20852;-68
2023/05/02 09:43:29;;;;;;;57.70;3.30;;;;;;;;;;5053686;28;20964;-68
2023/05/02 09:46:00;;;;;;;57.80;4.20;;;;;;;;;;5053464;28;20475;-67
2023/05/02 09:48:28;;;;;;;59.80;4.47;;;;;;;;;;5053296;28;20539;-68
2023/05/02 09:50:55;;;;;;;57.70;3.77;;;;;;;;;;5052981;28;20464;-68
2023/05/02 09:53:22;;;;;;;58.10;3.63;;;;;;;;;;5053579;28;20463;-69
2023/05/02 09:55:50;;;;;;;57.80;3.00;;;;;;;;;;5053456;28;20506;-68
2023/05/02 09:58:22;;;;;;;58.00;3.90;;;;;;;;;;5053168;28;20539;-68
2023/05/02 10:00:51;;;;;;;57.90;3.23;;;;;;;;;;5052916;28;20996;-68
2023/05/02 10:03:19;;;;;;;57.23;3.37;;;;;;;;;;5053136;28;20459;-68
2023/05/02 10:05:47;;;;;;;57.40;3.03;;;;;;;;;;5053332;28;20447;-68
2023/05/02 10:08:14;;;;;;;57.20;2.80;;;;;;;;;;5052891;28;20442;-68
2023/05/02 10:10:43;;;;;;;63.93;5.30;;;;;;;;;;5050732;28;20521;-68
2023/05/02 10:13:11;;;;;;;57.80;3.03;;;;;;;;;;5052259;28;20456;-68
2023/05/02 10:15:43;;;;;;;58.53;4.07;;;;;;;;;;5052046;28;20450;-66
2023/05/02 10:18:13;;;;;;;57.50;3.23;;;;;;;;;;5061841;28;20452;-70
2023/05/02 10:20:44;;;;;;;57.67;2.90;;;;;;;;;;5072398;28;20505;-69
2023/05/02 10:23:12;;;;;;;58.67;5.00;;;;;;;;;;5072008;28;20451;-67
2023/05/02 10:25:40;;;;;;;57.53;3.40;;;;;;;;;;5072529;28;20525;-67
2023/05/02 10:28:07;;;;;;;57.43;3.33;;;;;;;;;;5072383;28;20542;-67
2023/05/02 10:30:35;;;;;;;58.47;4.67;;;;;;;;;;5072242;28;20903;-67
2023/05/02 10:33:05;;;;;;;62.83;4.63;;;;;;;;;;5072440;28;20924;-67
2023/05/02 10:35:32;;;;;;;60.40;5.07;;;;;;;;;;5072492;28;20454;-66
2023/05/02 10:38:00;;;;;;;57.83;3.70;;;;;;;;;;5072363;28;20487;-67
2023/05/02 10:40:27;;;;;;;59.77;4.80;;;;;;;;;;5071915;28;20545;-67
2023/05/02 10:42:55;;;;;;;62.47;5.23;;;;;;;;;;5072135;28;20451;-67
2023/05/02 10:45:32;;;;;;;58.47;4.30;;;;;;;;;;5072189;28;20944;-67
2023/05/02 10:48:16;;;;;;;59.23;4.77;;;;;;;;;;5072250;28;20449;-67
2023/05/02 10:50:45;;;;;;;84.37;6.80;;;;;;;;;;5071896;28;20986;-69
2023/05/02 10:53:25;;;;;;;59.70;5.43;;;;;;;;;;5072096;28;20525;-68
2023/05/02 10:56:11;;;;;;;60.17;5.07;;;;;;;;;;5072199;28;20447;-69
2023/05/02 10:58:38;;;;;;;58.77;3.83;;;;;;;;;;5071870;28;20452;-67
2023/05/02 11:01:23;;;;;;;59.57;4.63;;;;;;;;;;5072035;28;20835;-67
2023/05/02 11:03:56;;;;;;;58.47;4.10;;;;;;;;;;5071462;28;20509;-69
2023/05/02 11:06:23;;;;;;;60.17;5.17;;;;;;;;;;5071914;28;20935;-69
2023/05/02 11:08:50;;;;;;;62.47;5.87;;;;;;;;;;5071742;28;20449;-67
2023/05/02 11:11:36;;;;;;;59.10;4.80;;;;;;;;;;5071935;28;20481;-68
2023/05/02 11:14:03;;;;;;;58.57;4.40;;;;;;;;;;5071759;28;20458;-67
2023/05/02 11:17:00;;;;;;;58.40;3.80;;;;;;;;;;5072011;28;20490;-68
2023/05/02 11:19:30;;;;;;;59.50;5.80;;;;;;;;;;5071185;28;20478;-67
2023/05/02 11:22:25;;;;;;;58.30;4.37;;;;;;;;;;5071763;28;20478;-67
2023/05/02 11:24:53;;;;;;;59.20;4.63;;;;;;;;;;5071379;28;20463;-67
2023/05/02 11:27:38;;;;;;;58.47;3.60;;;;;;;;;;5071629;28;20958;-67
2023/05/02 11:30:07;;;;;;;57.67;3.30;;;;;;;;;;5071342;28;20463;-67
2023/05/02 11:32:52;;;;;;;59.90;3.90;;;;;;;;;;5072163;28;20451;-68
2023/05/02 11:35:21;;;;;;;60.03;4.53;;;;;;;;;;5060128;28;21010;-67
2023/05/02 11:37:53;;;;;;;61.87;5.60;;;;;;;;;;5071504;28;20483;-67
2023/05/02 11:40:20;;;;;;;58.83;4.73;;;;;;;;;;5071542;28;21069;-67
2023/05/02 11:42:48;;;;;;;57.50;2.70;;;;;;;;;;5072044;28;20446;-67
2023/05/02 11:45:15;;;;;;;59.80;5.70;;;;;;;;;;5071429;28;20805;-67
2023/05/02 11:47:42;;;;;;;59.90;6.20;;;;;;;;;;5071751;28;20486;-67
2023/05/02 11:50:10;;;;;;;57.93;3.67;;;;;;;;;;5071251;28;20551;-66
2023/05/02 11:52:39;;;;;;;58.37;4.80;;;;;;;;;;5071571;28;20453;-67
2023/05/02 11:55:07;;;;;;;60.70;4.30;;;;;;;;;;5071385;28;20455;-67
2023/05/02 11:57:35;;;;;;;57.50;2.70;;;;;;;;;;5071247;28;20479;-67
2023/05/02 12:00:02;;;;;;;61.73;4.60;;;;;;;;;;5070904;28;20529;-67
2023/05/02 12:02:36;;;;;;;59.67;5.27;;;;;;;;;;5071663;28;20486;-67
2023/05/02 12:05:05;;;;;;;60.47;4.07;;;;;;;;;;5071377;28;20447;-70
2023/05/02 12:07:36;;;;;;;58.70;5.07;;;;;;;;;;5071368;28;20882;-67
2023/05/02 12:10:05;;;;;;;58.57;4.27;;;;;;;;;;5070872;28;20471;-67
2023/05/02 12:12:32;;;;;;;58.93;4.83;;;;;;;;;;5071189;28;20541;-67
2023/05/02 12:14:59;;;;;;;59.97;5.30;;;;;;;;;;5073151;28;20443;-67
2023/05/02 12:17:26;;;;;;;60.50;4.90;;;;;;;;;;5075212;28;20574;-67
2023/05/02 12:19:54;;;;;;;63.00;5.73;;;;;;;;;;5074734;28;20465;-67
2023/05/02 12:22:24;;;;;;;59.10;4.83;;;;;;;;;;5075054;28;20448;-69
2023/05/02 12:24:52;;;;;;;59.00;3.80;;;;;;;;;;5075088;28;20459;-69
2023/05/02 12:27:20;;;;;;;62.30;5.83;;;;;;;;;;5074848;28;20903;-67
2023/05/02 12:29:48;;;;;;;58.80;4.77;;;;;;;;;;5074688;28;20473;-68
2023/05/02 12:32:16;;;;;;;59.17;4.90;;;;;;;;;;5074886;28;20955;-68
2023/05/02 12:34:43;;;;;;;58.93;4.00;;;;;;;;;;5074735;28;20542;-67
2023/05/02 12:37:10;;;;;;;58.60;4.87;;;;;;;;;;5074663;28;20479;-67
2023/05/02 12:39:38;;;;;;;58.83;4.30;;;;;;;;;;5074211;28;20486;-67
2023/05/02 12:42:11;;;;;;;59.40;4.47;;;;;;;;;;5074931;28;20447;-68
2023/05/02 12:44:40;;;;;;;58.00;3.93;;;;;;;;;;5074843;28;20446;-69
2023/05/02 12:47:08;;;;;;;57.97;3.60;;;;;;;;;;5074812;28;20451;-68
2023/05/02 12:49:48;;;;;;;58.20;3.60;;;;;;;;;;5074183;28;20502;-68
2023/05/02 12:52:16;;;;;;;60.03;4.13;;;;;;;;;;5074466;28;20454;-68
2023/05/02 12:54:43;;;;;;;58.93;4.73;;;;;;;;;;5074713;28;20470;-69
2023/05/02 12:57:10;;;;;;;58.47;3.90;;;;;;;;;;5074698;28;20483;-69
2023/05/02 12:59:39;;;;;;;59.20;4.17;;;;;;;;;;5074128;28;20463;-68
2023/05/02 13:02:06;;;;;;;62.30;3.70;;;;;;;;;;5074332;28;20538;-69
2023/05/02 13:04:34;;;;;;;58.93;4.37;;;;;;;;;;5074254;28;20443;-69
2023/05/02 13:07:01;;;;;;;61.10;4.43;;;;;;;;;;5074492;28;20448;-69
2023/05/02 13:09:28;;;;;;;57.80;3.47;;;;;;;;;;5073998;28;20471;-69
2023/05/02 13:11:55;;;;;;;58.00;3.53;;;;;;;;;;5074277;28;20940;-69
2023/05/02 13:14:23;;;;;;;58.57;3.87;;;;;;;;;;5074191;28;20845;-69
2023/05/02 13:16:52;;;;;;;58.00;3.73;;;;;;;;;;5074085;28;20480;-69
2023/05/02 13:19:19;;;;;;;60.30;6.27;;;;;;;;;;5074072;28;20847;-69
2023/05/02 13:21:46;;;;;;;58.67;4.50;;;;;;;;;;5073928;28;20451;-69
2023/05/02 13:24:13;;;;;;;58.30;4.00;;;;;;;;;;5073954;28;20467;-69
2023/05/02 13:26:41;;;;;;;58.03;3.37;;;;;;;;;;5073346;28;20546;-69
2023/05/02 13:29:10;;;;;;;58.60;3.77;;;;;;;;;;5073391;28;20443;-69
2023/05/02 13:31:37;;;;;;;58.60;4.47;;;;;;;;;;5073792;28;20474;-69
2023/05/02 13:34:06;;;;;;;58.30;4.30;;;;;;;;;;5074005;28;20530;-68
2023/05/02 13:36:33;;;;;;;59.23;3.93;;;;;;;;;;5073639;28;20454;-67
2023/05/02 13:39:01;;;;;;;59.90;5.37;;;;;;;;;;5073280;28;20854;-67
2023/05/02 13:41:28;;;;;;;58.40;4.20;;;;;;;;;;5073625;28;20447;-67
2023/05/02 13:43:55;;;;;;;60.83;5.23;;;;;;;;;;5073465;28;20448;-68
2023/05/02 13:46:22;;;;;;;59.93;4.83;;;;;;;;;;5073437;28;20808;-68
2023/05/02 13:48:49;;;;;;;57.33;2.87;;;;;;;;;;5073449;28;20454;-68
2023/05/02 13:51:18;;;;;;;57.30;3.03;;;;;;;;;;5073374;28;20478;-68
2023/05/02 13:53:45;;;;;;;58.67;4.23;;;;;;;;;;5073414;28;20466;-68
2023/05/02 13:56:12;;;;;;;58.30;5.10;;;;;;;;;;5073333;28;20447;-68
2023/05/02 13:58:39;;;;;;;59.33;4.33;;;;;;;;;;5072858;28;20486;-68
2023/05/02 14:01:06;;;;;;;58.37;4.27;;;;;;;;;;5073096;28;20498;-68
2023/05/02 14:03:33;;;;;;;59.07;4.10;;;;;;;;;;5073322;28;20447;-68
2023/05/02 14:06:00;;;;;;;58.07;4.20;;;;;;;;;;5073151;28;20455;-68
2023/05/02 14:08:29;;;;;;;57.67;3.37;;;;;;;;;;5072852;28;20458;-68
2023/05/02 14:10:56;;;;;;;58.60;4.37;;;;;;;;;;5072817;28;20558;-68
2023/05/02 14:13:24;;;;;;;57.23;3.00;;;;;;;;;;5072916;28;20462;-68
2023/05/02 14:15:51;;;;;;;57.80;3.93;;;;;;;;;;5073109;28;20459;-68
2023/05/02 14:18:18;;;;;;;57.13;3.20;;;;;;;;;;5072787;28;20491;-67
2023/05/02 14:20:45;;;;;;;58.40;4.40;;;;;;;;;;5072549;28;20471;-68
2023/05/02 14:23:13;;;;;;;60.00;3.80;;;;;;;;;;5072654;28;20451;-68
2023/05/02 14:25:41;;;;;;;57.50;3.10;;;;;;;;;;5072660;28;20465;-68
2023/05/02 14:28:08;;;;;;;57.50;3.43;;;;;;;;;;5072755;28;20505;-67
2023/05/02 14:30:35;;;;;;;67.20;4.23;;;;;;;;;;5072270;28;20975;-68
2023/05/02 14:33:03;;;;;;;57.23;3.20;;;;;;;;;;5072696;28;20487;-67
2023/05/02 14:35:31;;;;;;;60.80;4.30;;;;;;;;;;5072653;28;20479;-68
2023/05/02 14:37:58;;;;;;;58.60;3.40;;;;;;;;;;5071604;28;20474;-68